createdAt,value
2019-04-10T00:00:35.039Z,8.47
2019-04-10T00:03:02.349Z,8.47
2019-04-10T00:05:29.291Z,8.38
2019-04-10T00:07:57.586Z,8.32
2019-04-10T00:10:25.026Z,8.29
2019-04-10T00:12:52.185Z,8.22
2019-04-10T00:15:19.450Z,8.16
2019-04-10T00:17:46.286Z,8.11
2019-04-10T00:20:13.671Z,8.12
2019-04-10T00:22:40.524Z,8.08
2019-04-10T00:25:08.491Z,8.00
2019-04-10T00:27:36.776Z,7.95
2019-04-10T00:30:06.864Z,8.04
2019-04-10T00:32:34.205Z,7.87
2019-04-10T00:35:02.532Z,7.80
2019-04-10T00:37:31.597Z,7.79
2019-04-10T00:39:59.172Z,7.75
2019-04-10T00:42:26.446Z,7.74
2019-04-10T00:44:54.490Z,7.73
2019-04-10T00:47:21.273Z,7.64
2019-04-10T00:49:48.271Z,7.64
2019-04-10T00:52:16.282Z,7.60
2019-04-10T00:54:43.612Z,7.54
2019-04-10T00:57:10.548Z,7.53
2019-04-10T00:59:37.252Z,7.48
2019-04-10T01:02:04.650Z,7.47
2019-04-10T01:04:31.565Z,7.42
2019-04-10T01:06:58.511Z,7.40
2019-04-10T01:09:25.624Z,7.40
2019-04-10T01:11:52.718Z,7.32
2019-04-10T01:14:19.545Z,7.27
2019-04-10T01:16:47.365Z,7.23
2019-04-10T01:19:15.441Z,7.24
2019-04-10T01:21:42.609Z,7.17
2019-04-10T01:24:09.517Z,7.14
2019-04-10T01:26:37.077Z,7.12
2019-04-10T01:29:05.141Z,7.14
2019-04-10T01:31:32.260Z,7.06
2019-04-10T01:33:59.370Z,7.04
2019-04-10T01:36:26.977Z,7.01
2019-04-10T01:38:53.891Z,6.96
2019-04-10T01:41:20.782Z,6.95
2019-04-10T01:43:48.853Z,6.96
2019-04-10T01:46:15.967Z,6.88
2019-04-10T01:48:43.774Z,6.89
2019-04-10T01:51:11.162Z,6.88
2019-04-10T01:53:37.958Z,6.89
2019-04-10T01:56:05.417Z,6.88
2019-04-10T01:58:32.828Z,6.82
2019-04-10T02:01:04.563Z,6.81
2019-04-10T02:03:31.762Z,6.84
2019-04-10T02:05:58.610Z,6.80
2019-04-10T02:08:25.743Z,6.84
2019-04-10T02:10:53.758Z,6.82
2019-04-10T02:13:20.892Z,6.85
2019-04-10T02:15:47.794Z,6.81
2019-04-10T02:18:14.693Z,6.84
2019-04-10T02:20:41.783Z,6.75
2019-04-10T02:23:08.852Z,6.73
2019-04-10T02:25:37.043Z,6.67
2019-04-10T02:28:04.861Z,6.69
2019-04-10T02:30:32.615Z,6.59
2019-04-10T02:33:02.173Z,6.55
2019-04-10T02:35:29.876Z,6.56
2019-04-10T02:38:00.568Z,6.46
2019-04-10T02:40:25.771Z,6.47
2019-04-10T02:42:54.522Z,6.52
2019-04-10T02:45:22.136Z,6.28
2019-04-10T02:47:50.802Z,6.28
2019-04-10T02:50:18.758Z,6.26
2019-04-10T02:52:48.174Z,6.20
2019-04-10T02:55:16.661Z,6.23
2019-04-10T02:57:45.736Z,6.21
2019-04-10T03:00:14.123Z,6.26
2019-04-10T03:02:42.006Z,6.31
2019-04-10T03:05:09.787Z,6.26
2019-04-10T03:07:36.952Z,6.20
2019-04-10T03:10:17.533Z,6.24
2019-04-10T03:12:36.390Z,6.17
2019-04-10T03:15:05.759Z,6.03
2019-04-10T03:17:34.868Z,6.08
2019-04-10T03:20:02.550Z,6.02
2019-04-10T03:22:31.136Z,6.07
2019-04-10T03:24:58.621Z,6.09
2019-04-10T03:27:26.043Z,6.03
2019-04-10T03:29:53.879Z,6.04
2019-04-10T03:32:38.366Z,5.99
2019-04-10T03:35:13.084Z,5.92
2019-04-10T03:37:40.346Z,5.91
2019-04-10T03:40:07.588Z,5.85
2019-04-10T03:42:34.473Z,5.79
2019-04-10T03:45:01.618Z,5.73
2019-04-10T03:47:28.981Z,5.71
2019-04-10T03:49:55.785Z,5.68
2019-04-10T03:52:22.664Z,5.67
2019-04-10T03:54:49.721Z,5.70
2019-04-10T03:57:16.753Z,5.74
2019-04-10T03:59:43.688Z,5.59
2019-04-10T04:02:11.624Z,5.54
2019-04-10T04:04:39.722Z,5.49
2019-04-10T04:07:07.065Z,5.56
2019-04-10T04:09:33.904Z,5.64
2019-04-10T04:12:00.720Z,5.58
2019-04-10T04:14:28.463Z,5.58
2019-04-10T04:16:55.671Z,5.56
2019-04-10T04:19:22.610Z,5.57
2019-04-10T04:21:50.241Z,5.58
2019-04-10T04:24:17.863Z,5.57
2019-04-10T04:26:45.194Z,5.64
2019-04-10T04:29:12.148Z,5.63
2019-04-10T04:31:39.993Z,5.62
2019-04-10T04:34:07.057Z,5.55
2019-04-10T04:36:33.875Z,5.56
2019-04-10T04:39:13.536Z,5.47
2019-04-10T04:41:29.590Z,5.51
2019-04-10T04:43:57.359Z,5.67
2019-04-10T04:46:24.554Z,5.70
2019-04-10T04:48:52.265Z,5.72
2019-04-10T04:51:19.690Z,5.73
2019-04-10T04:53:46.744Z,5.74
2019-04-10T04:56:17.819Z,5.86
2019-04-10T04:58:45.636Z,5.95
2019-04-10T05:01:12.730Z,6.02
2019-04-10T05:03:39.958Z,6.07
2019-04-10T05:06:07.986Z,6.20
2019-04-10T05:08:35.930Z,6.09
2019-04-10T05:11:04.338Z,6.09
2019-04-10T05:13:32.654Z,5.98
2019-04-10T05:15:59.598Z,6.06
2019-04-10T05:18:27.461Z,6.10
2019-04-10T05:20:54.834Z,6.15
2019-04-10T05:23:22.364Z,6.10
2019-04-10T05:25:49.843Z,6.15
2019-04-10T05:28:16.992Z,6.24
2019-04-10T05:30:43.876Z,6.34
2019-04-10T05:33:10.743Z,6.36
2019-04-10T05:35:37.792Z,6.33
2019-04-10T05:38:04.710Z,6.39
2019-04-10T05:40:33.121Z,6.44
2019-04-10T05:43:00.052Z,6.57
2019-04-10T05:45:27.671Z,6.62
2019-04-10T05:47:54.926Z,6.66
2019-04-10T05:50:21.925Z,6.74
2019-04-10T05:52:48.813Z,6.67
2019-04-10T05:55:16.160Z,6.68
2019-04-10T05:57:43.103Z,6.61
2019-04-10T06:00:10.924Z,6.72
2019-04-10T06:02:37.842Z,6.72
2019-04-10T06:05:06.036Z,6.61
2019-04-10T06:07:33.404Z,6.64
2019-04-10T06:10:05.145Z,6.67
2019-04-10T06:12:30.564Z,6.78
2019-04-10T06:14:57.408Z,6.94
2019-04-10T06:17:24.695Z,6.97
2019-04-10T06:19:52.993Z,7.06
2019-04-10T06:22:20.792Z,7.06
2019-04-10T06:24:48.784Z,7.12
2019-04-10T06:27:18.501Z,7.21
2019-04-10T06:29:46.277Z,7.31
2019-04-10T06:32:13.559Z,7.37
2019-04-10T06:34:40.932Z,7.84
2019-04-10T06:37:08.162Z,8.47
2019-04-10T06:39:35.490Z,8.38
2019-04-10T06:42:02.721Z,8.67
2019-04-10T06:44:30.143Z,8.28
2019-04-10T06:46:57.354Z,8.49
2019-04-10T06:49:24.876Z,9.11
2019-04-10T06:51:52.059Z,9.55
2019-04-10T06:54:19.177Z,9.72
2019-04-10T06:56:48.398Z,9.81
2019-04-10T06:59:16.290Z,9.93
2019-04-10T07:01:48.745Z,10.12
2019-04-10T07:04:13.418Z,10.62
2019-04-10T07:06:54.974Z,11.13
2019-04-10T07:09:11.746Z,11.15
2019-04-10T07:11:38.945Z,11.12
2019-04-10T07:14:10.392Z,11.02
2019-04-10T07:16:35.760Z,11.07
2019-04-10T07:19:06.177Z,11.39
2019-04-10T07:21:35.531Z,11.50
2019-04-10T07:24:06.772Z,11.53
2019-04-10T07:26:39.646Z,11.43
2019-04-10T07:29:01.057Z,11.57
2019-04-10T07:31:30.352Z,11.69
2019-04-10T07:33:56.978Z,11.72
2019-04-10T07:36:24.532Z,11.44
2019-04-10T07:38:53.907Z,11.68
2019-04-10T07:41:23.087Z,12.19
2019-04-10T07:43:53.904Z,12.68
2019-04-10T07:46:18.521Z,12.63
2019-04-10T07:48:45.770Z,12.81
2019-04-10T07:51:13.531Z,12.61
2019-04-10T07:53:41.463Z,13.18
2019-04-10T07:56:13.644Z,12.78
2019-04-10T07:58:37.793Z,13.33
2019-04-10T08:01:05.248Z,13.71
2019-04-10T08:03:33.171Z,13.44
2019-04-10T08:06:00.470Z,13.58
2019-04-10T08:08:27.895Z,13.66
2019-04-10T08:10:55.188Z,13.85
2019-04-10T08:13:22.584Z,13.92
2019-04-10T08:15:50.062Z,13.98
2019-04-10T08:18:17.233Z,13.62
2019-04-10T08:20:44.184Z,13.57
2019-04-10T08:23:12.208Z,13.55
2019-04-10T08:25:40.940Z,13.59
2019-04-10T08:28:09.161Z,14.14
2019-04-10T08:30:36.308Z,14.18
2019-04-10T08:33:04.823Z,14.20
2019-04-10T08:35:32.123Z,14.49
2019-04-10T08:37:59.276Z,14.79
2019-04-10T08:40:26.403Z,14.10
2019-04-10T08:42:53.503Z,14.23
2019-04-10T08:45:21.028Z,14.32
2019-04-10T08:47:48.697Z,14.74
2019-04-10T08:50:15.795Z,14.39
2019-04-10T08:52:42.739Z,14.15
2019-04-10T08:55:10.237Z,13.80
2019-04-10T08:57:39.415Z,13.55
2019-04-10T09:00:08.263Z,13.42
2019-04-10T09:02:35.929Z,13.02
2019-04-10T09:05:06.817Z,13.17
2019-04-10T09:07:33.834Z,13.09
2019-04-10T09:10:01.871Z,13.00
2019-04-10T09:12:29.583Z,12.75
2019-04-10T09:14:57.216Z,12.87
2019-04-10T09:17:24.980Z,12.56
2019-04-10T09:19:52.195Z,12.45
2019-04-10T09:22:20.470Z,12.28
2019-04-10T09:24:48.790Z,12.29
2019-04-10T09:27:17.107Z,12.24
2019-04-10T09:29:44.491Z,11.91
2019-04-10T09:32:12.627Z,12.03
2019-04-10T09:34:40.315Z,12.10
2019-04-10T09:37:08.103Z,11.84
2019-04-10T09:39:35.930Z,11.90
2019-04-10T09:42:03.602Z,11.87
2019-04-10T09:44:30.637Z,11.91
2019-04-10T09:46:57.887Z,11.53
2019-04-10T09:49:32.629Z,11.29
2019-04-10T09:51:54.342Z,11.33
2019-04-10T09:54:21.829Z,11.34
2019-04-10T09:56:49.209Z,11.15
2019-04-10T09:59:16.300Z,11.14
2019-04-10T10:01:44.485Z,11.26
2019-04-10T10:04:11.689Z,11.22
2019-04-10T10:06:39.646Z,11.29
2019-04-10T10:09:06.785Z,11.34
2019-04-10T10:11:34.168Z,11.09
2019-04-10T10:14:01.926Z,11.04
2019-04-10T10:16:30.263Z,11.09
2019-04-10T10:18:57.469Z,11.16
2019-04-10T10:21:24.401Z,11.03
2019-04-10T10:23:52.026Z,11.08
2019-04-10T10:26:19.697Z,11.18
2019-04-10T10:28:47.113Z,11.27
2019-04-10T10:31:14.322Z,11.37
2019-04-10T10:33:41.722Z,11.51
2019-04-10T10:36:10.297Z,11.73
2019-04-10T10:38:37.235Z,12.16
2019-04-10T10:41:04.610Z,12.42
2019-04-10T10:43:32.198Z,12.43
2019-04-10T10:46:00.867Z,12.52
2019-04-10T10:48:28.096Z,12.26
2019-04-10T10:50:56.104Z,12.40
2019-04-10T10:53:24.073Z,12.41
2019-04-10T10:55:51.242Z,12.48
2019-04-10T10:58:18.226Z,12.65
2019-04-10T11:00:45.977Z,12.65
2019-04-10T11:03:13.944Z,12.76
2019-04-10T11:05:42.287Z,12.79
2019-04-10T11:08:09.434Z,12.45
2019-04-10T11:10:36.530Z,12.74
2019-04-10T11:13:03.466Z,12.72
2019-04-10T11:15:30.787Z,12.72
2019-04-10T11:17:57.875Z,12.63
2019-04-10T11:20:25.667Z,12.61
2019-04-10T11:22:53.635Z,12.47
2019-04-10T11:25:22.142Z,12.59
2019-04-10T11:27:50.211Z,12.50
2019-04-10T11:30:18.322Z,12.53
2019-04-10T11:32:46.238Z,12.63
2019-04-10T11:35:13.436Z,12.44
2019-04-10T11:37:44.736Z,12.64
2019-04-10T11:40:09.722Z,12.60
2019-04-10T11:42:37.151Z,12.72
2019-04-10T11:45:08.038Z,12.47
2019-04-10T11:47:38.875Z,12.64
2019-04-10T11:52:42.489Z,12.43
2019-04-10T11:55:12.718Z,12.45
2019-04-10T11:57:34.971Z,12.27
2019-04-10T12:00:06.120Z,12.40
2019-04-10T12:02:34.334Z,12.43
2019-04-10T12:05:08.862Z,12.25
2019-04-10T12:12:28.682Z,11.84
2019-04-10T12:14:56.219Z,11.87
2019-04-10T12:17:23.155Z,11.96
2019-04-10T12:19:50.112Z,11.87
2019-04-10T12:22:17.104Z,11.79
2019-04-10T12:24:44.088Z,11.73
2019-04-10T12:27:11.091Z,11.70
2019-04-10T12:29:38.469Z,11.71
2019-04-10T12:32:06.263Z,11.65
2019-04-10T12:34:34.103Z,11.74
2019-04-10T12:37:01.241Z,11.66
2019-04-10T12:39:28.358Z,11.66
2019-04-10T12:41:55.523Z,11.73
2019-04-10T12:44:23.365Z,11.74
2019-04-10T12:46:51.159Z,11.75
2019-04-10T12:49:19.206Z,11.76
2019-04-10T12:51:46.795Z,11.77
2019-04-10T12:54:13.688Z,11.77
2019-04-10T12:56:40.498Z,11.65
2019-04-10T12:59:07.428Z,11.81
2019-04-10T13:01:34.297Z,11.87
2019-04-10T13:04:01.344Z,11.70
2019-04-10T13:06:29.653Z,11.62
2019-04-10T13:09:05.766Z,11.63
2019-04-10T13:11:26.858Z,11.59
2019-04-10T13:13:54.629Z,11.47
2019-04-10T13:16:21.812Z,11.62
2019-04-10T13:18:49.023Z,11.79
2019-04-10T13:21:16.374Z,11.75
2019-04-10T13:23:43.137Z,11.91
2019-04-10T13:26:10.889Z,11.93
2019-04-10T13:28:39.177Z,12.03
2019-04-10T13:31:06.880Z,11.99
2019-04-10T13:33:33.848Z,12.01
2019-04-10T13:36:01.270Z,12.04
2019-04-10T13:38:32.329Z,12.06
2019-04-10T13:40:57.426Z,12.02
2019-04-10T13:43:25.587Z,12.01
2019-04-10T13:45:52.694Z,11.99
2019-04-10T13:48:20.729Z,11.77
2019-04-10T13:50:48.714Z,11.70
2019-04-10T13:53:17.517Z,11.66
2019-04-10T13:55:45.443Z,11.82
2019-04-10T13:58:12.662Z,12.04
2019-04-10T14:00:41.208Z,12.07
2019-04-10T14:03:08.415Z,12.13
2019-04-10T14:05:35.405Z,12.09
2019-04-10T14:08:03.394Z,12.09
2019-04-10T14:10:31.295Z,12.31
2019-04-10T14:12:59.623Z,12.17
2019-04-10T14:15:30.139Z,12.05
2019-04-10T14:17:57.507Z,12.06
2019-04-10T14:20:24.953Z,11.90
2019-04-10T14:22:53.845Z,11.78
2019-04-10T14:25:23.315Z,11.92
2019-04-10T14:27:50.422Z,11.67
2019-04-10T14:30:22.960Z,11.33
2019-04-10T14:32:51.480Z,11.36
2019-04-10T14:35:18.974Z,11.52
2019-04-10T14:37:46.075Z,11.50
2019-04-10T14:40:13.610Z,11.48
2019-04-10T14:42:40.541Z,11.54
2019-04-10T14:45:08.883Z,11.60
2019-04-10T14:47:36.141Z,11.59
2019-04-10T14:50:05.190Z,11.56
2019-04-10T14:52:32.826Z,11.43
2019-04-10T14:54:59.882Z,11.43
2019-04-10T14:57:27.049Z,11.33
2019-04-10T14:59:53.951Z,11.26
2019-04-10T15:02:22.258Z,11.15
2019-04-10T15:04:49.127Z,11.01
2019-04-10T15:07:16.047Z,11.03
2019-04-10T15:09:42.963Z,11.04
2019-04-10T15:12:10.349Z,11.03
2019-04-10T15:14:37.520Z,10.96
2019-04-10T15:17:06.621Z,10.95
2019-04-10T15:19:34.366Z,10.99
2019-04-10T15:22:01.645Z,10.98
2019-04-10T15:24:28.670Z,10.99
2019-04-10T15:26:55.613Z,11.02
2019-04-10T15:29:22.671Z,10.95
2019-04-10T15:31:50.221Z,10.99
2019-04-10T15:34:18.301Z,11.03
2019-04-10T15:36:47.221Z,11.01
2019-04-10T15:39:15.391Z,11.10
2019-04-10T15:41:43.485Z,10.96
2019-04-10T15:44:12.010Z,11.02
2019-04-10T15:46:39.395Z,11.01
2019-04-10T15:49:07.063Z,10.99
2019-04-10T15:51:34.471Z,10.96
2019-04-10T15:54:01.506Z,10.91
2019-04-10T15:56:29.708Z,10.94
2019-04-10T15:58:58.001Z,11.01
2019-04-10T16:01:28.138Z,10.94
2019-04-10T16:03:55.764Z,10.89
2019-04-10T16:06:23.012Z,10.81
2019-04-10T16:08:50.438Z,10.85
2019-04-10T16:11:19.508Z,10.86
2019-04-10T16:13:48.516Z,10.89
2019-04-10T16:16:25.407Z,10.84
2019-04-10T16:18:55.139Z,10.80
2019-04-10T16:21:22.679Z,10.87
2019-04-10T16:24:06.902Z,10.92
2019-04-10T16:26:33.829Z,10.84
2019-04-10T16:29:00.610Z,10.89
2019-04-10T16:31:27.729Z,10.92
2019-04-10T16:33:55.055Z,10.84
2019-04-10T16:36:23.475Z,10.75
2019-04-10T16:38:51.217Z,10.70
2019-04-10T16:41:19.422Z,10.62
2019-04-10T16:43:46.769Z,10.60
2019-04-10T16:46:13.679Z,10.62
2019-04-10T16:48:40.806Z,10.59
2019-04-10T16:51:08.054Z,10.56
2019-04-10T16:53:36.254Z,10.53
2019-04-10T16:56:03.525Z,10.56
2019-04-10T16:58:31.688Z,10.53
2019-04-10T17:00:59.072Z,10.52
2019-04-10T17:03:26.181Z,10.55
2019-04-10T17:05:53.635Z,10.52
2019-04-10T17:08:21.741Z,10.53
2019-04-10T17:10:48.973Z,10.56
2019-04-10T17:13:16.234Z,10.50
2019-04-10T17:15:44.014Z,10.40
2019-04-10T17:18:11.015Z,10.39
2019-04-10T17:20:38.377Z,10.38
2019-04-10T17:23:05.513Z,10.39
2019-04-10T17:25:33.992Z,10.35
2019-04-10T17:28:01.766Z,10.39
2019-04-10T17:30:29.519Z,10.40
2019-04-10T17:32:56.706Z,10.36
2019-04-10T17:35:24.202Z,10.34
2019-04-10T17:37:51.229Z,10.20
2019-04-10T17:40:31.179Z,10.23
2019-04-10T17:42:48.442Z,10.19
2019-04-10T17:45:15.874Z,10.19
2019-04-10T17:47:43.041Z,10.17
2019-04-10T17:50:12.275Z,10.17
2019-04-10T17:52:39.271Z,10.21
2019-04-10T17:55:07.362Z,10.09
2019-04-10T17:57:38.927Z,10.09
2019-04-10T18:00:07.088Z,10.10
2019-04-10T18:02:34.752Z,10.10
2019-04-10T18:05:02.459Z,10.11
2019-04-10T18:07:30.179Z,10.10
2019-04-10T18:09:58.132Z,10.11
2019-04-10T18:12:25.352Z,10.12
2019-04-10T18:14:52.469Z,10.20
2019-04-10T18:17:19.563Z,10.17
2019-04-10T18:19:46.585Z,10.15
2019-04-10T18:22:14.287Z,10.19
2019-04-10T18:24:41.487Z,10.18
2019-04-10T18:27:08.548Z,10.17
2019-04-10T18:29:35.540Z,10.15
2019-04-10T18:32:02.781Z,10.07
2019-04-10T18:34:30.198Z,10.18
2019-04-10T18:36:57.302Z,10.12
2019-04-10T18:39:24.405Z,10.06
2019-04-10T18:41:52.002Z,10.11
2019-04-10T18:44:19.258Z,10.13
2019-04-10T18:46:46.734Z,10.12
2019-04-10T18:49:13.876Z,10.14
2019-04-10T18:51:40.650Z,10.13
2019-04-10T18:54:08.347Z,10.08
2019-04-10T18:56:37.302Z,10.04
2019-04-10T18:59:16.383Z,10.09
2019-04-10T19:02:01.550Z,10.05
2019-04-10T19:04:36.602Z,10.05
2019-04-10T19:07:04.864Z,10.03
2019-04-10T19:09:34.064Z,10.02
2019-04-10T19:12:02.447Z,9.97
2019-04-10T19:14:30.427Z,10.00
2019-04-10T19:16:58.273Z,9.97
2019-04-10T19:19:26.068Z,9.98
2019-04-10T19:21:53.858Z,9.92
2019-04-10T19:24:22.116Z,9.97
2019-04-10T19:26:49.158Z,9.92
2019-04-10T19:29:17.128Z,9.92
2019-04-10T19:31:48.340Z,9.88
2019-04-10T19:34:15.527Z,9.89
2019-04-10T19:36:43.825Z,9.93
2019-04-10T19:39:10.987Z,9.89
2019-04-10T19:41:41.483Z,9.83
2019-04-10T19:44:07.503Z,9.90
2019-04-10T19:46:34.502Z,9.87
2019-04-10T19:49:01.372Z,9.87
2019-04-10T19:51:28.401Z,9.86
2019-04-10T19:53:55.510Z,9.85
2019-04-10T19:56:22.639Z,9.84
2019-04-10T19:58:50.275Z,9.78
2019-04-10T20:01:17.453Z,9.76
2019-04-10T20:03:44.347Z,9.83
2019-04-10T20:06:12.095Z,9.69
2019-04-10T20:08:39.841Z,9.72
2019-04-10T20:11:07.147Z,9.67
2019-04-10T20:13:34.633Z,9.65
2019-04-10T20:16:02.779Z,9.64
2019-04-10T20:18:29.879Z,9.55
2019-04-10T20:20:56.794Z,9.52
2019-04-10T20:23:23.760Z,9.53
2019-04-10T20:25:51.116Z,9.49
2019-04-10T20:28:18.218Z,9.42
2019-04-10T20:30:45.102Z,9.47
2019-04-10T20:33:12.156Z,9.50
2019-04-10T20:35:38.980Z,9.53
2019-04-10T20:38:07.104Z,9.46
2019-04-10T20:40:34.108Z,9.42
2019-04-10T20:43:02.582Z,9.41
2019-04-10T20:45:29.830Z,9.38
2019-04-10T20:47:56.815Z,9.32
2019-04-10T20:50:23.968Z,9.25
2019-04-10T20:52:51.567Z,9.39
2019-04-10T20:55:19.476Z,9.37
2019-04-10T20:57:47.832Z,9.46
2019-04-10T21:00:32.521Z,9.44
2019-04-10T21:03:00.673Z,9.38
2019-04-10T21:05:28.275Z,9.40
2019-04-10T21:07:56.471Z,9.24
2019-04-10T21:10:23.579Z,9.31
2019-04-10T21:12:50.519Z,9.34
2019-04-10T21:15:19.551Z,9.26
2019-04-10T21:17:46.819Z,9.25
2019-04-10T21:20:13.890Z,9.31
2019-04-10T21:22:41.045Z,9.29
2019-04-10T21:25:08.282Z,9.29
2019-04-10T21:27:36.066Z,9.31
2019-04-10T21:30:22.455Z,9.29
2019-04-10T21:33:09.640Z,9.32
2019-04-10T21:35:38.398Z,9.30
2019-04-10T21:38:05.352Z,9.31
2019-04-10T21:40:32.776Z,9.32
2019-04-10T21:42:59.672Z,9.29
2019-04-10T21:45:26.595Z,9.20
2019-04-10T21:47:54.366Z,9.24
2019-04-10T21:50:21.709Z,9.26
2019-04-10T21:52:49.768Z,9.28
2019-04-10T21:55:19.341Z,9.24
2019-04-10T21:57:46.927Z,9.27
2019-04-10T22:00:16.731Z,9.25
2019-04-10T22:02:44.990Z,9.25
2019-04-10T22:05:14.249Z,9.27
2019-04-10T22:07:50.307Z,9.21
2019-04-10T22:10:25.985Z,9.21
2019-04-10T22:12:53.516Z,9.17
2019-04-10T22:15:26.457Z,9.14
2019-04-10T22:17:53.592Z,9.15
2019-04-10T22:20:20.702Z,9.13
2019-04-10T22:22:48.122Z,9.16
2019-04-10T22:25:15.672Z,9.13
2019-04-10T22:27:43.558Z,9.09
2019-04-10T22:30:12.422Z,9.07
2019-04-10T22:32:41.178Z,9.03
2019-04-10T22:35:08.983Z,8.97
2019-04-10T22:37:36.339Z,9.08
2019-04-10T22:40:05.210Z,9.05
2019-04-10T22:42:40.064Z,9.05
2019-04-10T22:45:02.595Z,8.99
2019-04-10T22:47:29.786Z,9.04
2019-04-10T22:49:57.789Z,9.10
2019-04-10T22:52:25.982Z,9.07
2019-04-10T22:54:55.292Z,9.06
2019-04-10T22:57:23.092Z,8.98
2019-04-10T22:59:51.149Z,8.99
2019-04-10T23:02:19.333Z,8.98
2019-04-10T23:04:47.110Z,8.96
2019-04-10T23:07:14.808Z,8.96
2019-04-10T23:09:43.031Z,8.92
2019-04-10T23:12:10.084Z,8.93
2019-04-10T23:14:37.097Z,8.94
2019-04-10T23:17:04.319Z,8.90
2019-04-10T23:19:31.376Z,8.90
2019-04-10T23:21:58.378Z,8.90
2019-04-10T23:24:25.530Z,8.89
2019-04-10T23:26:53.377Z,8.91
2019-04-10T23:29:20.511Z,8.82
2019-04-10T23:31:48.030Z,8.81
2019-04-10T23:34:16.709Z,8.89
2019-04-10T23:36:44.439Z,8.91
2019-04-10T23:39:12.249Z,8.80
2019-04-10T23:41:39.992Z,8.74
2019-04-10T23:44:07.148Z,8.82
2019-04-10T23:46:34.693Z,8.77
2019-04-10T23:49:02.871Z,8.75
2019-04-10T23:51:31.472Z,8.72
2019-04-10T23:53:58.713Z,8.76
2019-04-10T23:56:25.514Z,8.77
2019-04-10T23:58:52.538Z,8.77
